Time;durP1;ratioP1;P1;durP2;ratioP2;P2;SDS_P1;SDS_P2;PMS_P1;PMS_P2;Temp;Humidity;BMP_temperature;BMP_pressure;BME280_temperature;BME280_humidity;BME280_pressure;Samples;Min_cycle;Max_cycle;Signal;HPM_P1;HPM_P2
2023/07/19 00:01:11;;;;;;;3.28;2.03;;;;;;;15.29;48.16;101435.97;4965259;28;20120;-69
2023/07/19 00:03:37;;;;;;;2.75;1.23;;;;;;;15.17;48.51;101430.38;4961263;28;20598;-70
2023/07/19 00:06:02;;;;;;;5.40;1.75;;;;;;;15.25;48.25;101437.06;4966673;28;20032;-70
2023/07/19 00:08:30;;;;;;;4.30;1.40;;;;;;;15.28;48.54;101435.13;4966501;28;20043;-68
2023/07/19 00:10:55;;;;;;;2.15;1.02;;;;;;;15.27;48.59;101440.47;4961560;28;20035;-70
2023/07/19 00:13:21;;;;;;;6.57;2.33;;;;;;;15.16;48.48;101441.81;4966957;28;20556;-73
2023/07/19 00:15:46;;;;;;;4.82;1.58;;;;;;;15.06;49.43;101442.34;4950333;28;20554;-72
2023/07/19 00:18:12;;;;;;;3.45;1.58;;;;;;;14.98;49.74;101424.31;4967600;28;20035;-69
2023/07/19 00:20:39;;;;;;;2.70;1.55;;;;;;;14.94;49.86;101420.13;4948907;28;20038;-68
2023/07/19 00:23:05;;;;;;;4.80;1.45;;;;;;;14.92;49.52;101414.09;4965034;28;20034;-67
2023/07/19 00:25:30;;;;;;;2.20;1.95;;;;;;;14.96;48.97;101413.84;4967694;28;20034;-68
2023/07/19 00:27:56;;;;;;;3.75;1.65;;;;;;;15.01;49.40;101420.69;4964560;28;20042;-68
2023/07/19 00:30:21;;;;;;;3.95;1.95;;;;;;;14.98;49.30;101406.75;4970994;28;20057;-68
2023/07/19 00:32:49;;;;;;;3.33;1.67;;;;;;;14.98;49.49;101401.47;4952690;28;20056;-69
2023/07/19 00:35:15;;;;;;;3.05;2.03;;;;;;;14.98;49.37;101390.94;4965512;28;20042;-69
2023/07/19 00:37:43;;;;;;;4.30;1.50;;;;;;;15.09;49.07;101387.78;4965831;28;20054;-71
2023/07/19 00:40:09;;;;;;;2.13;1.13;;;;;;;15.19;49.21;101398.69;4971561;28;20034;-71
2023/07/19 00:42:37;;;;;;;2.40;1.50;;;;;;;15.27;49.27;101398.34;4964719;28;20437;-71
2023/07/19 00:45:03;;;;;;;2.92;1.23;;;;;;;15.28;49.06;101386.84;4973138;28;20045;-71
2023/07/19 00:47:29;;;;;;;3.65;1.90;;;;;;;15.17;49.22;101390.88;4967573;28;20331;-70
2023/07/19 00:49:54;;;;;;;4.40;1.52;;;;;;;15.05;49.46;101375.69;4969284;28;20425;-70
2023/07/19 00:52:23;;;;;;;2.10;1.40;;;;;;;14.98;50.00;101369.03;4965970;28;20547;-71
2023/07/19 00:54:49;;;;;;;3.38;1.92;;;;;;;14.98;49.75;101369.88;4968741;28;20069;-70
2023/07/19 00:57:15;;;;;;;4.65;1.40;;;;;;;15.02;49.65;101361.84;4970044;28;20066;-71
2023/07/19 00:59:41;;;;;;;2.83;1.63;;;;;;;15.06;49.16;101364.25;4967135;28;20041;-71
2023/07/19 01:02:07;;;;;;;2.92;1.77;;;;;;;15.04;49.27;101367.91;4931887;28;20036;-72
2023/07/19 01:04:33;;;;;;;6.65;2.08;;;;;;;14.93;49.59;101373.69;4952643;28;20030;-70
2023/07/19 01:06:59;;;;;;;3.38;2.35;;;;;;;14.83;50.17;101368.03;4949104;28;20040;-72
2023/07/19 01:09:26;;;;;;;4.50;2.88;;;;;;;14.83;49.89;101372.44;4970771;28;20030;-71
2023/07/19 01:11:54;;;;;;;4.05;3.00;;;;;;;14.92;49.90;101366.72;4968905;28;20061;-72
2023/07/19 01:14:19;;;;;;;4.80;3.80;;;;;;;14.91;49.73;101375.56;4964866;28;20499;-71
2023/07/19 01:16:45;;;;;;;6.00;4.90;;;;;;;14.87;50.08;101371.38;4955281;28;20137;-73
2023/07/19 01:19:10;;;;;;;6.97;4.22;;;;;;;14.95;49.53;101359.53;4950637;28;20086;-72
2023/07/19 01:21:39;;;;;;;7.00;5.28;;;;;;;14.86;49.82;101364.41;4966540;28;20046;-71
2023/07/19 01:24:04;;;;;;;8.77;5.13;;;;;;;14.85;49.94;101362.69;4969183;28;20046;-71
2023/07/19 01:26:30;;;;;;;9.35;6.18;;;;;;;14.80;49.98;101354.19;4970939;28;20034;-72
2023/07/19 01:28:59;;;;;;;8.52;6.05;;;;;;;14.64;50.20;101357.59;4966096;28;20128;-71
2023/07/19 01:31:24;;;;;;;8.98;5.15;;;;;;;14.62;50.37;101356.81;4968239;28;20035;-71
2023/07/19 01:33:50;;;;;;;8.18;5.00;;;;;;;14.80;49.76;101348.94;4966816;28;20046;-69
2023/07/19 01:36:18;;;;;;;11.15;6.10;;;;;;;14.75;49.95;101346.53;4962178;28;20034;-72
2023/07/19 01:38:43;;;;;;;7.38;5.43;;;;;;;14.61;50.53;101346.34;4943395;28;20042;-73
2023/07/19 01:41:08;;;;;;;6.88;5.72;;;;;;;14.59;50.46;101349.06;4966061;28;20030;-72
2023/07/19 01:43:35;;;;;;;8.48;5.13;;;;;;;14.63;50.43;101350.59;4953085;28;20047;-72
2023/07/19 01:46:00;;;;;;;6.10;5.25;;;;;;;14.64;50.29;101344.44;4949572;28;20050;-73
2023/07/19 01:48:26;;;;;;;8.45;5.25;;;;;;;14.72;50.33;101344.91;4961846;28;20034;-74
2023/07/19 01:50:52;;;;;;;4.95;4.45;;;;;;;14.75;50.47;101352.63;4970345;28;20124;-73
2023/07/19 01:53:17;;;;;;;9.88;5.10;;;;;;;14.56;51.01;101354.47;4958367;28;20466;-72
2023/07/19 01:55:43;;;;;;;7.18;4.97;;;;;;;14.75;50.80;101357.91;4971122;28;20038;-67
2023/07/19 01:58:10;;;;;;;9.93;6.18;;;;;;;14.66;51.48;101347.84;4964317;28;20035;-67
2023/07/19 02:00:36;;;;;;;7.40;5.97;;;;;;;14.25;52.02;101340.16;4966230;28;20034;-67
2023/07/19 02:03:02;;;;;;;9.60;5.93;;;;;;;14.08;53.06;101342.75;4949618;28;20497;-68
2023/07/19 02:05:28;;;;;;;7.80;5.47;;;;;;;13.86;53.68;101341.13;4969115;28;20037;-68
2023/07/19 02:07:54;;;;;;;7.32;5.28;;;;;;;13.75;54.20;101332.88;4963222;28;20472;-69
2023/07/19 02:10:22;;;;;;;8.25;5.13;;;;;;;13.74;54.43;101336.41;4950864;28;20041;-70
2023/07/19 02:12:50;;;;;;;7.82;5.50;;;;;;;13.83;54.72;101330.78;4969197;28;20061;-70
2023/07/19 02:15:15;;;;;;;12.75;5.32;;;;;;;13.79;54.60;101326.56;4967124;28;20593;-70
2023/07/19 02:17:41;;;;;;;5.35;3.97;;;;;;;13.71;55.01;101326.06;4951011;28;20046;-70
2023/07/19 02:20:07;;;;;;;5.85;4.78;;;;;;;13.69;55.52;101330.53;4969960;28;20057;-70
2023/07/19 02:22:33;;;;;;;6.40;4.28;;;;;;;13.64;55.63;101324.66;4966580;28;20448;-70
2023/07/19 02:25:01;;;;;;;6.97;4.40;;;;;;;13.60;55.29;101313.41;4966164;28;20034;-70
2023/07/19 02:27:31;;;;;;;5.85;4.60;;;;;;;13.30;56.37;101319.13;4969610;28;20401;-70
2023/07/19 02:30:00;;;;;;;6.57;4.13;;;;;;;13.58;55.82;101333.66;4952281;28;20060;-70
2023/07/19 02:32:28;;;;;;;8.27;5.65;;;;;;;13.53;56.04;101333.81;4939346;28;20058;-72
2023/07/19 02:34:54;;;;;;;8.55;4.38;;;;;;;13.44;56.33;101339.50;4955722;28;20526;-72
2023/07/19 02:37:19;;;;;;;4.38;3.90;;;;;;;13.33;56.14;101324.22;4945407;28;20039;-73
2023/07/19 02:39:45;;;;;;;6.95;3.60;;;;;;;13.28;56.53;101327.97;4948309;28;20043;-73
2023/07/19 02:42:10;;;;;;;12.23;3.75;;;;;;;13.31;56.40;101327.84;4931328;28;20121;-75
2023/07/19 02:44:36;;;;;;;5.00;3.08;;;;;;;13.51;55.61;101325.16;4950367;28;20039;-75
2023/07/19 02:47:01;;;;;;;6.30;3.65;;;;;;;13.58;55.74;101322.28;4969946;28;20076;-73
2023/07/19 02:49:27;;;;;;;7.15;4.30;;;;;;;13.52;55.98;101315.53;4964480;28;20683;-72
2023/07/19 02:51:52;;;;;;;9.32;5.05;;;;;;;13.40;56.54;101316.06;4966902;28;20106;-74
2023/07/19 02:54:18;;;;;;;6.15;4.05;;;;;;;13.40;56.66;101322.16;4966779;28;20085;-75
2023/07/19 02:56:46;;;;;;;5.10;4.43;;;;;;;13.43;56.85;101322.06;4952803;28;20065;-74
2023/07/19 02:59:12;;;;;;;5.53;3.92;;;;;;;13.44;56.66;101317.66;4955255;28;20046;-75
2023/07/19 03:01:41;;;;;;;3.88;3.47;;;;;;;13.36;56.60;101315.38;4955083;28;20518;-75
2023/07/19 03:04:07;;;;;;;3.92;3.15;;;;;;;13.24;56.92;101310.66;4966580;28;20073;-72
2023/07/19 03:06:33;;;;;;;6.32;2.50;;;;;;;13.24;57.10;101308.03;4966016;28;20058;-71
2023/07/19 03:08:58;;;;;;;5.35;2.58;;;;;;;13.17;56.57;101303.97;4968941;28;20298;-71
2023/07/19 03:11:24;;;;;;;3.13;1.95;;;;;;;13.07;56.86;101314.88;4963287;28;20273;-72
2023/07/19 03:13:49;;;;;;;3.40;2.38;;;;;;;12.99;56.98;101309.09;4965429;28;20031;-70
2023/07/19 03:16:15;;;;;;;3.45;2.05;;;;;;;13.00;57.26;101308.19;4948942;28;20513;-72
2023/07/19 03:18:48;;;;;;;1.80;1.00;;;;;;;13.05;57.14;101305.38;4954202;28;20246;-72
2023/07/19 03:21:14;;;;;;;1.75;1.33;;;;;;;13.15;56.82;101305.81;4952676;28;20489;-72
2023/07/19 03:23:40;;;;;;;2.35;0.80;;;;;;;13.15;56.59;101309.28;4945826;28;20042;-72
2023/07/19 03:26:07;;;;;;;1.77;0.88;;;;;;;13.18;56.26;101316.16;4943118;28;20035;-74
2023/07/19 03:28:33;;;;;;;1.58;0.90;;;;;;;13.12;56.44;101317.31;4946134;28;20046;-73
2023/07/19 03:30:59;;;;;;;1.98;1.08;;;;;;;13.19;56.68;101305.63;4936382;28;20031;-73
2023/07/19 03:33:26;;;;;;;4.10;1.60;;;;;;;13.13;56.43;101305.03;4947649;28;20494;-74
2023/07/19 03:35:52;;;;;;;2.92;0.90;;;;;;;12.92;56.92;101305.06;4948987;28;20042;-72
2023/07/19 03:38:21;;;;;;;1.50;0.55;;;;;;;12.88;57.41;101299.06;4948381;28;20038;-73
2023/07/19 03:40:48;;;;;;;2.45;0.82;;;;;;;12.95;57.49;101304.91;4968394;28;20038;-70
2023/07/19 03:43:19;;;;;;;3.22;1.67;;;;;;;12.98;57.42;101299.53;4951215;28;20049;-72
2023/07/19 03:45:45;;;;;;;3.35;1.80;;;;;;;12.88;57.32;101288.56;4968430;28;20034;-73
2023/07/19 03:48:11;;;;;;;2.00;1.13;;;;;;;12.88;57.47;101279.88;4948793;28;20151;-74
2023/07/19 03:50:37;;;;;;;2.45;1.40;;;;;;;12.82;57.37;101288.00;4950772;28;20481;-74
2023/07/19 03:53:04;;;;;;;3.47;1.48;;;;;;;12.73;57.79;101273.50;4953416;28;20623;-74
2023/07/19 03:55:30;;;;;;;2.20;1.67;;;;;;;12.71;57.77;101285.81;4949551;28;20034;-75
2023/07/19 03:57:57;;;;;;;2.22;1.05;;;;;;;12.70;58.19;101284.97;4956346;28;20034;-74
2023/07/19 04:00:22;;;;;;;3.67;1.80;;;;;;;12.73;58.16;101291.00;4965106;28;20359;-73
2023/07/19 04:02:50;;;;;;;3.63;1.88;;;;;;;12.75;58.01;101287.41;4964861;28;20500;-73
2023/07/19 04:05:17;;;;;;;2.58;1.90;;;;;;;12.72;57.87;101276.19;4954682;28;20284;-71
2023/07/19 04:07:42;;;;;;;2.42;1.55;;;;;;;12.77;58.08;101276.84;4971100;28;20569;-74
2023/07/19 04:10:08;;;;;;;2.25;1.58;;;;;;;12.78;57.99;101278.53;4971486;28;20558;-72
2023/07/19 04:12:34;;;;;;;4.80;2.20;;;;;;;12.72;58.20;101265.72;4964516;28;21060;-72
2023/07/19 04:15:00;;;;;;;3.60;1.98;;;;;;;12.76;57.96;101272.50;4986678;28;20614;-70
2023/07/19 04:17:27;;;;;;;2.33;1.75;;;;;;;12.69;58.10;101266.66;4945657;28;20544;-73
2023/07/19 04:19:52;;;;;;;3.72;2.17;;;;;;;12.72;57.99;101273.59;4934360;28;22148;-71
2023/07/19 04:22:18;;;;;;;5.05;2.58;;;;;;;12.73;58.28;101263.00;4946566;28;20050;-71
2023/07/19 04:24:44;;;;;;;5.80;2.50;;;;;;;12.82;58.33;101272.25;4952731;28;20031;-73
2023/07/19 04:27:10;;;;;;;3.78;2.58;;;;;;;12.84;57.99;101260.75;4942673;28;20079;-74
2023/07/19 04:29:35;;;;;;;6.60;2.38;;;;;;;12.90;57.80;101275.41;4950502;28;20027;-71
2023/07/19 04:32:01;;;;;;;3.13;2.45;;;;;;;12.84;57.88;101278.28;4961080;28;20053;-72
2023/07/19 04:34:34;;;;;;;2.30;1.67;;;;;;;12.97;57.55;101276.00;4943756;28;20035;-73
2023/07/19 04:37:03;;;;;;;5.93;2.85;;;;;;;12.95;57.42;101273.41;4930900;28;20117;-73
2023/07/19 04:39:28;;;;;;;3.15;2.15;;;;;;;12.92;57.81;101270.94;4968912;28;20053;-73
2023/07/19 04:41:55;;;;;;;3.05;2.17;;;;;;;12.93;57.88;101263.91;4974273;28;20026;-73
2023/07/19 04:44:21;;;;;;;2.45;1.67;;;;;;;12.93;58.08;101270.00;4946832;28;20045;-73
2023/07/19 04:46:47;;;;;;;2.05;1.70;;;;;;;12.95;57.91;101265.56;4950143;28;20042;-74
2023/07/19 04:49:13;;;;;;;4.00;2.40;;;;;;;12.89;57.86;101264.06;4937371;28;20053;-73
2023/07/19 04:51:38;;;;;;;4.50;2.42;;;;;;;12.62;58.05;101249.47;4949926;28;20066;-72
2023/07/19 04:54:04;;;;;;;5.97;3.05;;;;;;;12.59;57.99;101257.47;4949456;28;20564;-73
2023/07/19 04:56:31;;;;;;;3.63;2.13;;;;;;;12.65;58.61;101258.06;4930735;28;20039;-71
2023/07/19 04:58:59;;;;;;;5.70;2.42;;;;;;;12.77;58.11;101263.72;4949406;28;20037;-74
2023/07/19 05:01:24;;;;;;;5.40;1.92;;;;;;;12.80;58.03;101268.84;4953694;28;20054;-75
2023/07/19 05:03:50;;;;;;;3.65;2.13;;;;;;;12.97;57.68;101266.34;4932220;28;20122;-70
2023/07/19 05:06:17;;;;;;;6.25;2.35;;;;;;;13.08;57.81;101264.09;4950018;28;20119;-70
2023/07/19 05:08:43;;;;;;;3.33;1.75;;;;;;;13.04;57.85;101257.28;4949394;28;20263;-74
2023/07/19 05:11:09;;;;;;;3.60;2.28;;;;;;;12.90;57.09;101254.41;4951877;28;20039;-73
2023/07/19 05:13:35;;;;;;;3.80;2.70;;;;;;;12.74;57.93;101245.53;4932693;28;20406;-69
2023/07/19 05:16:01;;;;;;;3.22;2.22;;;;;;;12.66;58.39;101244.03;4948118;28;20038;-69
2023/07/19 05:18:27;;;;;;;4.00;1.90;;;;;;;12.63;58.42;101257.28;4977821;28;20046;-72
2023/07/19 05:20:57;;;;;;;3.42;1.80;;;;;;;12.77;58.09;101256.72;4969382;28;20026;-72
2023/07/19 05:23:22;;;;;;;7.03;2.22;;;;;;;12.92;58.05;101252.59;4954659;28;20589;-71
2023/07/19 05:25:48;;;;;;;4.15;2.45;;;;;;;13.03;57.45;101266.06;4932718;28;20236;-72
2023/07/19 05:28:13;;;;;;;3.25;2.00;;;;;;;13.31;57.14;101260.41;4948009;28;20105;-73
2023/07/19 05:30:41;;;;;;;7.40;2.17;;;;;;;13.53;56.57;101265.53;4948428;28;20066;-72
2023/07/19 05:33:07;;;;;;;8.18;2.22;;;;;;;13.50;56.59;101260.44;4946743;28;20326;-72
2023/07/19 05:35:33;;;;;;;2.85;2.22;;;;;;;13.54;56.61;101255.91;4947935;28;20049;-72
2023/07/19 05:37:59;;;;;;;3.22;1.83;;;;;;;13.48;56.07;101261.44;4957735;28;20129;-71
2023/07/19 05:40:24;;;;;;;2.17;1.98;;;;;;;13.52;56.63;101255.97;4980144;28;20034;-71
2023/07/19 05:42:51;;;;;;;4.68;2.13;;;;;;;13.49;55.83;101260.50;4968152;28;20045;-72
2023/07/19 05:45:18;;;;;;;3.10;1.27;;;;;;;13.49;56.10;101257.88;4966031;28;20058;-71
2023/07/19 05:47:43;;;;;;;4.07;1.98;;;;;;;13.44;56.34;101260.72;4967117;28;20706;-72
2023/07/19 05:50:12;;;;;;;2.33;2.13;;;;;;;13.59;56.12;101255.72;4969341;28;20603;-73
2023/07/19 05:52:43;;;;;;;10.13;3.03;;;;;;;13.64;56.13;101251.94;4980921;28;20145;-74
2023/07/19 05:55:08;;;;;;;2.85;1.65;;;;;;;13.55;55.71;101252.34;4960875;28;20112;-70
2023/07/19 05:57:34;;;;;;;3.42;1.83;;;;;;;13.63;55.98;101249.38;4957376;28;22355;-69
2023/07/19 06:00:13;;;;;;;1.90;1.35;;;;;;;13.77;55.57;101246.13;4949745;28;20037;-69
2023/07/19 06:02:42;;;;;;;2.10;1.23;;;;;;;13.76;55.19;101250.50;4945533;28;20046;-69
2023/07/19 06:05:08;;;;;;;3.47;1.30;;;;;;;13.93;54.91;101244.47;4952654;28;20031;-70
2023/07/19 06:07:35;;;;;;;2.65;1.50;;;;;;;14.06;54.44;101252.63;4951254;28;20462;-72
2023/07/19 06:10:01;;;;;;;5.07;1.17;;;;;;;14.35;54.51;101259.06;4969340;28;20085;-69
2023/07/19 06:12:27;;;;;;;2.00;1.40;;;;;;;14.60;54.14;101257.84;4983085;28;20625;-73
2023/07/19 06:14:53;;;;;;;2.40;1.45;;;;;;;14.52;53.30;101255.59;4956541;28;21305;-70
2023/07/19 06:17:18;;;;;;;1.52;1.00;;;;;;;14.65;51.72;101254.03;4964324;28;20135;-69
2023/07/19 06:19:44;;;;;;;3.92;0.80;;;;;;;15.17;50.70;101253.13;4934525;28;20513;-69
2023/07/19 06:22:09;;;;;;;1.85;1.00;;;;;;;15.13;50.56;101252.41;4954870;28;20041;-69
2023/07/19 06:24:35;;;;;;;1.70;0.85;;;;;;;15.90;50.14;101252.66;4945883;28;20433;-70
2023/07/19 06:27:01;;;;;;;4.25;0.70;;;;;;;17.30;46.54;101242.59;4961358;28;20057;-73
2023/07/19 06:29:26;;;;;;;1.70;0.68;;;;;;;18.84;44.91;101238.66;4969652;28;20034;-71
2023/07/19 06:31:51;;;;;;;2.13;0.65;;;;;;;20.58;38.59;101234.03;4966905;28;20505;-69
2023/07/19 06:34:17;;;;;;;3.33;0.55;;;;;;;20.96;38.24;101232.88;4968126;28;20042;-71
2023/07/19 06:36:43;;;;;;;3.70;0.80;;;;;;;22.22;35.37;101235.16;4965007;28;20112;-72
2023/07/19 06:39:08;;;;;;;1.38;0.38;;;;;;;22.20;35.41;101239.75;4967449;28;20042;-69
2023/07/19 06:41:34;;;;;;;2.28;0.50;;;;;;;20.41;36.98;101235.31;4963812;28;20035;-70
2023/07/19 06:43:59;;;;;;;1.65;0.50;;;;;;;19.36;39.50;101233.31;4964478;28;20046;-70
2023/07/19 06:46:28;;;;;;;2.85;0.75;;;;;;;17.51;42.93;101232.50;4964696;28;20106;-70
2023/07/19 06:48:53;;;;;;;2.80;0.43;;;;;;;16.67;44.97;101225.31;4965297;28;20057;-71
2023/07/19 06:51:19;;;;;;;1.38;0.65;;;;;;;16.49;46.35;101221.13;4951550;28;20034;-69
2023/07/19 06:53:46;;;;;;;1.15;0.32;;;;;;;17.63;43.55;101222.94;4963864;28;20066;-70
2023/07/19 06:56:12;;;;;;;1.65;0.50;;;;;;;19.59;39.57;101235.19;4970263;28;20034;-70
2023/07/19 06:58:37;;;;;;;2.55;0.40;;;;;;;20.85;36.72;101228.41;4960418;28;20045;-70
2023/07/19 07:01:03;;;;;;;0.47;0.25;;;;;;;22.25;34.70;101226.88;4950408;28;20306;-70
2023/07/19 07:03:29;;;;;;;1.40;0.40;;;;;;;23.40;33.77;101224.94;4966280;28;20049;-69
2023/07/19 07:05:55;;;;;;;2.13;0.55;;;;;;;22.86;33.73;101227.00;4966030;28;20125;-68
2023/07/19 07:08:22;;;;;;;1.00;0.50;;;;;;;23.79;32.24;101236.53;4962607;28;20413;-70
2023/07/19 07:10:48;;;;;;;3.95;0.80;;;;;;;24.66;31.40;101234.78;4968231;28;20034;-70
2023/07/19 07:13:19;;;;;;;3.20;0.43;;;;;;;23.90;33.56;101240.91;4964644;28;20030;-70
2023/07/19 07:15:46;;;;;;;3.45;0.70;;;;;;;20.92;35.91;101242.91;4965514;28;20088;-71
2023/07/19 07:18:12;;;;;;;2.05;0.50;;;;;;;18.91;39.47;101247.06;4966083;28;20050;-71
2023/07/19 07:20:38;;;;;;;5.50;0.50;;;;;;;18.26;42.66;101245.28;4965315;28;20026;-70
2023/07/19 07:23:03;;;;;;;2.92;0.47;;;;;;;17.90;44.01;101249.38;4958734;28;20031;-70
2023/07/19 07:25:33;;;;;;;2.08;0.50;;;;;;;17.49;44.80;101257.31;4948992;28;20053;-70
2023/07/19 07:27:59;;;;;;;2.78;0.50;;;;;;;17.21;43.73;101245.81;4950688;28;20134;-70
2023/07/19 07:30:27;;;;;;;0.60;0.30;;;;;;;17.01;44.27;101242.63;4949136;28;20586;-70
2023/07/19 07:32:54;;;;;;;1.73;0.57;;;;;;;17.49;42.11;101250.25;4952195;28;20039;-70
2023/07/19 07:35:20;;;;;;;0.88;0.30;;;;;;;18.09;41.26;101242.88;4960397;28;20093;-71
2023/07/19 07:37:49;;;;;;;1.80;0.30;;;;;;;20.07;39.80;101234.34;4945478;28;20067;-71
2023/07/19 07:40:15;;;;;;;1.63;0.50;;;;;;;20.81;36.47;101234.88;4947583;28;20157;-71
2023/07/19 07:42:40;;;;;;;1.25;0.30;;;;;;;22.89;34.58;101229.38;4928294;28;20150;-71
2023/07/19 07:45:06;;;;;;;1.00;0.30;;;;;;;22.59;34.34;101225.72;4931226;28;20501;-72
2023/07/19 07:47:32;;;;;;;1.05;0.20;;;;;;;22.14;36.38;101223.34;4946127;28;20046;-72
2023/07/19 07:50:00;;;;;;;1.85;0.17;;;;;;;22.12;35.63;101227.94;4944578;28;20027;-71
2023/07/19 07:52:25;;;;;;;3.55;0.30;;;;;;;21.45;36.15;101233.44;4962720;28;20130;-71
2023/07/19 07:54:51;;;;;;;2.50;0.57;;;;;;;21.61;37.05;101225.09;4941695;28;20132;-71
2023/07/19 07:57:17;;;;;;;0.90;0.30;;;;;;;21.23;36.64;101224.53;4945794;28;20042;-70
2023/07/19 07:59:45;;;;;;;1.25;0.40;;;;;;;20.99;36.14;101222.00;4943390;28;20070;-69
2023/07/19 08:02:11;;;;;;;2.67;0.57;;;;;;;19.34;38.94;101229.94;4948474;28;20702;-71
2023/07/19 08:04:37;;;;;;;1.55;0.43;;;;;;;18.20;41.57;101229.81;4942039;28;20043;-70
2023/07/19 08:07:03;;;;;;;1.13;0.50;;;;;;;17.55;43.61;101230.50;4945590;28;20038;-69
2023/07/19 08:09:31;;;;;;;4.30;0.88;;;;;;;17.33;43.32;101231.00;4943081;28;20046;-69
2023/07/19 08:11:59;;;;;;;3.88;1.27;;;;;;;16.97;44.97;101227.06;4941315;28;20039;-69
2023/07/19 08:14:24;;;;;;;1.90;0.98;;;;;;;17.52;44.86;101221.00;4928696;28;20126;-69
2023/07/19 08:16:51;;;;;;;2.97;2.03;;;;;;;18.37;43.05;101212.81;4945045;28;20117;-69
2023/07/19 08:19:23;;;;;;;6.32;1.05;;;;;;;19.15;41.20;101215.34;4937680;28;20055;-69
2023/07/19 08:21:48;;;;;;;1.73;0.60;;;;;;;19.34;40.17;101216.69;4964708;28;21231;-69
2023/07/19 08:24:13;;;;;;;1.20;0.60;;;;;;;19.76;38.88;101214.56;4965812;28;20039;-70
2023/07/19 08:26:42;;;;;;;4.90;0.90;;;;;;;19.60;39.45;101206.88;4961370;28;20493;-69
2023/07/19 08:29:18;;;;;;;3.75;1.77;;;;;;;19.91;39.20;101205.47;4964253;28;20045;-70
2023/07/19 08:31:43;;;;;;;2.83;0.93;;;;;;;20.68;39.21;101205.78;4958778;28;20041;-70
2023/07/19 08:34:13;;;;;;;2.45;1.02;;;;;;;21.52;36.79;101202.75;4945043;28;20126;-70
2023/07/19 08:36:39;;;;;;;2.78;0.80;;;;;;;21.96;37.31;101208.88;4938907;28;20041;-71
2023/07/19 08:39:05;;;;;;;3.40;1.25;;;;;;;21.84;35.63;101212.53;4957534;28;20637;-71
2023/07/19 08:41:37;;;;;;;1.73;1.02;;;;;;;20.59;38.09;101203.84;4944147;28;20026;-69
2023/07/19 08:44:04;;;;;;;1.60;0.80;;;;;;;20.35;39.31;101211.03;4953091;28;20511;-71
2023/07/19 08:46:29;;;;;;;2.35;1.23;;;;;;;20.96;38.18;101200.16;4960722;28;20185;-70
2023/07/19 08:48:55;;;;;;;2.65;1.25;;;;;;;21.46;37.45;101201.38;4954491;28;20611;-70
2023/07/19 08:51:26;;;;;;;4.75;1.40;;;;;;;21.41;38.70;101200.09;4951381;28;20061;-69
2023/07/19 08:53:53;;;;;;;1.77;1.00;;;;;;;20.59;39.06;101197.69;4979993;28;20165;-70
2023/07/19 08:56:20;;;;;;;4.85;2.40;;;;;;;19.75;40.72;101197.81;4958582;28;20034;-69
2023/07/19 08:58:45;;;;;;;3.90;1.52;;;;;;;18.93;42.34;101194.00;4956286;28;20073;-69
2023/07/19 09:01:14;;;;;;;3.38;1.67;;;;;;;18.60;42.20;101203.31;4966816;28;20042;-69
2023/07/19 09:03:48;;;;;;;3.10;0.80;;;;;;;18.77;43.27;101196.84;4963476;28;20117;-69
2023/07/19 09:06:32;;;;;;;1.80;1.10;;;;;;;18.11;44.39;101190.72;4968933;28;20580;-70
2023/07/19 09:08:57;;;;;;;2.15;1.25;;;;;;;18.01;44.76;101196.63;4976694;28;20399;-70
2023/07/19 09:11:26;;;;;;;3.47;2.10;;;;;;;18.14;45.04;101188.75;4981773;28;20113;-70
2023/07/19 09:13:56;;;;;;;3.65;2.20;;;;;;;17.93;44.54;101191.00;4963973;28;20071;-70
2023/07/19 09:16:26;;;;;;;15.65;6.30;;;;;;;18.16;44.08;101184.19;4963699;28;20568;-70
2023/07/19 09:18:53;;;;;;;3.75;2.15;;;;;;;17.92;44.54;101176.09;4976945;28;20074;-70
2023/07/19 09:21:54;;;;;;;;;;;;;;;;;;;;;
2023/07/19 09:24:20;;;;;;;2.90;2.00;;;;;;;18.65;44.46;101177.34;4965256;28;20477;-69
2023/07/19 09:26:51;;;;;;;5.32;1.92;;;;;;;18.87;43.86;101182.84;4955938;28;20307;-69
2023/07/19 09:29:17;;;;;;;6.00;2.03;;;;;;;18.45;43.60;101179.59;4958708;28;20131;-69
2023/07/19 09:32:00;;;;;;;3.35;1.65;;;;;;;18.47;44.42;101172.41;4965879;28;20049;-68
2023/07/19 09:34:27;;;;;;;2.00;1.40;;;;;;;17.62;45.66;101174.50;4967666;28;20034;-70
2023/07/19 09:36:56;;;;;;;5.68;2.05;;;;;;;17.84;45.51;101178.41;4963888;28;20894;-70
2023/07/19 09:39:27;;;;;;;2.83;1.92;;;;;;;16.73;49.08;101185.38;4958756;28;20073;-70
2023/07/19 09:42:00;;;;;;;3.22;1.63;;;;;;;17.16;49.22;101182.72;4959590;28;20203;-70
2023/07/19 09:44:27;;;;;;;3.13;1.92;;;;;;;17.78;49.82;101173.50;4969475;28;20034;-70
2023/07/19 09:47:08;;;;;;;2.03;1.08;;;;;;;19.14;45.98;101175.72;4962629;28;20037;-70
2023/07/19 09:49:34;;;;;;;8.75;1.55;;;;;;;20.48;41.93;101169.31;4960383;28;20038;-70
2023/07/19 09:52:01;;;;;;;1.45;0.40;;;;;;;20.21;39.84;101167.81;4944396;28;20034;-69
2023/07/19 09:54:38;;;;;;;3.92;0.55;;;;;;;20.91;39.53;101176.63;4964285;28;20064;-70
2023/07/19 09:57:07;;;;;;;7.13;0.88;;;;;;;21.25;37.48;101173.91;4965953;28;20072;-69
2023/07/19 09:59:48;;;;;;;0.98;0.30;;;;;;;20.42;38.53;101173.31;4962602;28;20410;-69
2023/07/19 10:02:15;;;;;;;1.95;0.30;;;;;;;20.97;38.73;101169.94;4966446;28;20487;-69
2023/07/19 10:04:51;;;;;;;0.85;0.40;;;;;;;21.10;36.84;101182.13;4963648;28;20173;-69
2023/07/19 10:07:26;;;;;;;0.40;0.20;;;;;;;21.45;36.87;101169.63;4956154;28;20521;-70
2023/07/19 10:10:03;;;;;;;1.50;0.20;;;;;;;20.76;36.45;101173.31;4963683;28;20038;-70
2023/07/19 10:12:36;;;;;;;2.92;0.32;;;;;;;21.09;37.54;101174.31;4980138;28;20038;-70
2023/07/19 10:15:05;;;;;;;1.17;0.10;;;;;;;20.76;36.15;101169.81;4979997;28;20549;-69
2023/07/19 10:17:41;;;;;;;0.57;0.15;;;;;;;20.75;36.18;101166.28;4964646;28;20034;-69
2023/07/19 10:20:14;;;;;;;0.65;0.43;;;;;;;20.78;36.65;101176.69;4966931;28;20057;-69
2023/07/19 10:22:55;;;;;;;2.55;0.15;;;;;;;21.81;35.54;101172.91;4963369;28;20137;-69
2023/07/19 10:25:31;;;;;;;2.63;0.10;;;;;;;21.75;33.69;101172.41;4958477;28;20038;-69
2023/07/19 10:28:38;;;;;;;1.30;0.10;;;;;;;21.12;34.48;101174.03;4962149;28;20211;-69
2023/07/19 10:31:03;;;;;;;0.82;0.20;;;;;;;20.70;35.77;101179.09;4960142;28;20041;-69
2023/07/19 10:33:32;;;;;;;0.77;0.10;;;;;;;20.96;35.17;101179.75;4979067;28;20133;-69
2023/07/19 10:36:08;;;;;;;1.27;0.30;;;;;;;21.31;34.72;101181.34;4966313;28;20129;-69
2023/07/19 10:38:34;;;;;;;2.97;0.20;;;;;;;21.57;35.40;101179.28;4962344;28;20260;-69
2023/07/19 10:41:07;;;;;;;1.05;0.20;;;;;;;21.99;33.12;101174.00;4966018;28;20046;-69
2023/07/19 10:43:36;;;;;;;1.48;0.10;;;;;;;21.84;34.31;101189.44;4963316;28;20046;-70
2023/07/19 10:46:04;;;;;;;0.90;0.30;;;;;;;21.90;32.87;101174.78;4962539;28;20516;-68
2023/07/19 10:48:34;;;;;;;1.17;0.10;;;;;;;20.91;34.66;101180.09;4946781;28;20104;-70
2023/07/19 10:51:03;;;;;;;1.27;0.17;;;;;;;20.20;35.76;101186.50;4951350;28;20046;-70
2023/07/19 10:53:30;;;;;;;1.65;0.10;;;;;;;19.79;37.31;101190.44;4965415;28;20034;-69
2023/07/19 10:55:57;;;;;;;2.08;0.20;;;;;;;20.05;35.66;101194.66;4963089;28;20448;-70
2023/07/19 10:58:24;;;;;;;2.75;0.10;;;;;;;19.77;35.89;101189.72;4946593;28;20492;-71
2023/07/19 11:00:54;;;;;;;4.78;0.20;;;;;;;20.17;35.78;101184.91;4964614;28;20513;-69
2023/07/19 11:03:23;;;;;;;0.95;0.10;;;;;;;20.53;35.25;101183.94;4959867;28;20042;-70
2023/07/19 11:05:50;;;;;;;1.10;0.10;;;;;;;19.97;35.42;101197.06;4980641;28;20046;-70
2023/07/19 11:08:27;;;;;;;2.80;0.20;;;;;;;19.39;35.80;101195.97;4964692;28;20120;-69
2023/07/19 11:10:54;;;;;;;2.65;0.17;;;;;;;19.60;35.73;101188.31;4960405;28;20052;-69
2023/07/19 11:13:25;;;;;;;1.38;0.10;;;;;;;20.10;35.40;101187.22;4964388;28;20425;-69
2023/07/19 11:16:00;;;;;;;1.80;0.40;;;;;;;20.91;33.47;101181.94;4960979;28;20493;-69
2023/07/19 11:18:35;;;;;;;1.13;0.15;;;;;;;20.67;34.70;101174.03;4964998;28;20133;-69
2023/07/19 11:21:02;;;;;;;0.65;0.20;;;;;;;21.45;32.51;101180.25;4963853;28;20088;-68
2023/07/19 11:23:29;;;;;;;1.40;0.10;;;;;;;20.84;33.74;101175.34;4961820;28;20081;-69
2023/07/19 11:26:05;;;;;;;0.75;0.10;;;;;;;22.09;32.31;101176.75;4962084;28;20026;-70
2023/07/19 11:28:36;;;;;;;1.75;0.10;;;;;;;22.40;30.06;101177.66;4949316;28;20034;-69